Time;durP1;ratioP1;P1;durP2;ratioP2;P2;SDS_P1;SDS_P2;PMS_P1;PMS_P2;Temp;Humidity;BMP_temperature;BMP_pressure;BME280_temperature;BME280_humidity;BME280_pressure;Samples;Min_cycle;Max_cycle;Signal;HPM_P1;HPM_P2
2021/07/29 00:00:38;;;;;;;3.78;3.45;;;21.70;72.30;;;;;;3539593;40;20088;-65
2021/07/29 00:03:05;;;;;;;5.13;3.45;;;21.70;72.60;;;;;;3539948;40;20324;-65
2021/07/29 00:05:32;;;;;;;5.85;3.90;;;21.70;72.60;;;;;;3541342;40;20034;-66
2021/07/29 00:07:58;;;;;;;4.32;3.30;;;21.70;72.50;;;;;;3541647;40;20031;-65
2021/07/29 00:10:27;;;;;;;4.40;3.33;;;21.70;72.20;;;;;;3539595;40;20034;-66
2021/07/29 00:12:57;;;;;;;4.13;3.72;;;21.70;72.00;;;;;;3540902;40;20027;-67
2021/07/29 00:15:23;;;;;;;5.18;3.92;;;21.70;72.10;;;;;;3538300;40;20117;-68
2021/07/29 00:20:18;;;;;;;3.47;3.17;;;21.80;72.30;;;;;;3541299;40;20046;-67
2021/07/29 00:22:45;;;;;;;5.00;3.53;;;21.80;72.00;;;;;;3542403;40;20031;-67
2021/07/29 00:25:12;;;;;;;4.85;3.65;;;21.70;72.00;;;;;;3533479;40;20049;-67
2021/07/29 00:27:39;;;;;;;4.53;3.47;;;21.80;71.80;;;;;;3541431;40;20049;-69
2021/07/29 00:30:06;;;;;;;8.10;4.18;;;21.70;72.00;;;;;;3541906;40;20297;-67
2021/07/29 00:32:32;;;;;;;3.90;3.35;;;21.70;72.20;;;;;;3542481;40;20034;-67
2021/07/29 00:34:59;;;;;;;5.15;3.42;;;21.70;72.30;;;;;;3542066;40;20082;-67
2021/07/29 00:37:24;;;;;;;5.15;3.30;;;21.60;72.40;;;;;;3542462;40;20046;-67
2021/07/29 00:39:50;;;;;;;5.45;3.47;;;21.60;72.50;;;;;;3542219;40;20137;-67
2021/07/29 00:42:16;;;;;;;3.83;3.28;;;21.50;72.80;;;;;;3541510;40;20104;-67
2021/07/29 00:44:42;;;;;;;4.00;3.25;;;21.50;72.90;;;;;;3541013;40;20022;-67
2021/07/29 00:47:11;;;;;;;5.07;3.30;;;21.50;73.00;;;;;;3542161;40;20407;-67
2021/07/29 00:49:38;;;;;;;4.10;3.70;;;21.50;73.00;;;;;;3541740;40;20038;-67
2021/07/29 00:52:04;;;;;;;4.25;3.40;;;21.40;73.20;;;;;;3541707;40;20448;-67
2021/07/29 00:54:30;;;;;;;9.32;3.67;;;21.40;73.30;;;;;;3542399;40;20037;-67
2021/07/29 00:56:57;;;;;;;5.03;3.60;;;21.40;73.20;;;;;;3541914;40;20070;-67
2021/07/29 00:59:23;;;;;;;4.20;3.53;;;21.30;73.40;;;;;;3542205;40;20027;-67
2021/07/29 01:01:49;;;;;;;4.03;3.63;;;21.30;73.40;;;;;;3541847;40;20365;-68
2021/07/29 01:04:15;;;;;;;5.43;3.05;;;21.20;73.80;;;;;;3541116;40;20067;-67
2021/07/29 01:06:41;;;;;;;3.28;2.92;;;21.10;74.70;;;;;;3548771;40;20034;-67
2021/07/29 01:09:09;;;;;;;4.35;3.35;;;21.10;74.80;;;;;;3541598;40;20035;-67
2021/07/29 01:11:43;;;;;;;4.68;3.45;;;21.00;75.20;;;;;;3542546;40;20061;-68
2021/07/29 01:14:09;;;;;;;4.43;2.92;;;20.90;75.90;;;;;;3541344;40;20035;-67
2021/07/29 01:16:36;;;;;;;4.35;3.45;;;20.80;75.90;;;;;;3543399;40;20116;-68
2021/07/29 01:19:04;;;;;;;3.45;3.15;;;20.70;76.00;;;;;;3542558;40;20027;-68
2021/07/29 01:21:31;;;;;;;3.53;3.22;;;20.60;76.30;;;;;;3542637;40;20079;-68
2021/07/29 01:23:57;;;;;;;6.90;3.35;;;20.60;76.70;;;;;;3541664;40;20647;-67
2021/07/29 01:26:24;;;;;;;3.50;3.20;;;20.50;77.00;;;;;;3549535;40;20281;-67
2021/07/29 01:28:50;;;;;;;4.05;3.47;;;20.40;77.20;;;;;;3540851;40;20084;-67
2021/07/29 01:31:16;;;;;;;5.35;3.70;;;20.30;77.60;;;;;;3541172;40;20078;-67
2021/07/29 01:33:43;;;;;;;4.10;3.60;;;20.20;77.90;;;;;;3541994;40;20148;-67
2021/07/29 01:36:09;;;;;;;4.70;3.30;;;20.20;78.20;;;;;;3541536;40;20657;-68
2021/07/29 01:38:35;;;;;;;4.35;3.33;;;20.10;78.20;;;;;;3541799;40;20806;-69
2021/07/29 01:41:04;;;;;;;4.97;3.70;;;20.00;78.50;;;;;;3541280;40;20050;-69
2021/07/29 01:43:31;;;;;;;3.72;3.33;;;20.00;78.80;;;;;;3540861;40;20035;-68
2021/07/29 01:45:58;;;;;;;4.82;3.50;;;19.90;79.10;;;;;;3542073;40;20041;-66
2021/07/29 01:48:24;;;;;;;3.65;3.20;;;19.90;79.60;;;;;;3542169;40;20133;-66
2021/07/29 01:50:50;;;;;;;4.15;3.20;;;19.80;79.70;;;;;;3542388;40;20049;-65
2021/07/29 01:53:15;;;;;;;4.13;3.40;;;19.80;80.20;;;;;;3542742;40;20038;-66
2021/07/29 01:55:42;;;;;;;4.10;3.25;;;19.70;80.50;;;;;;3543016;40;20096;-66
2021/07/29 01:58:12;;;;;;;4.13;3.33;;;19.70;80.80;;;;;;3542339;40;20768;-66
2021/07/29 02:00:39;;;;;;;3.72;3.33;;;19.60;81.00;;;;;;3542531;40;20039;-66
2021/07/29 02:03:04;;;;;;;3.97;3.38;;;19.60;81.10;;;;;;3541993;40;20327;-66
2021/07/29 02:05:31;;;;;;;3.88;3.42;;;19.60;81.30;;;;;;3542251;40;20038;-66
2021/07/29 02:07:57;;;;;;;3.80;3.40;;;19.60;81.50;;;;;;3541924;40;20026;-66
2021/07/29 02:10:23;;;;;;;3.50;3.13;;;19.70;81.60;;;;;;3542341;40;20054;-66
2021/07/29 02:12:50;;;;;;;5.18;3.85;;;19.70;81.40;;;;;;3542598;40;20033;-66
2021/07/29 02:15:18;;;;;;;3.90;3.30;;;19.70;81.30;;;;;;3542092;40;20411;-66
2021/07/29 02:17:44;;;;;;;5.32;3.60;;;19.70;81.40;;;;;;3543047;40;20041;-65
2021/07/29 02:20:11;;;;;;;5.72;3.50;;;19.60;81.40;;;;;;3541201;40;20035;-65
2021/07/29 02:22:37;;;;;;;3.78;3.33;;;19.60;81.40;;;;;;3542314;40;20061;-65
2021/07/29 02:25:05;;;;;;;4.93;2.97;;;19.70;81.50;;;;;;3541579;40;20136;-65
2021/07/29 02:27:31;;;;;;;5.25;3.13;;;19.60;81.60;;;;;;3542631;40;20034;-66
2021/07/29 02:29:57;;;;;;;3.97;3.25;;;19.60;81.80;;;;;;3542598;40;20281;-66
2021/07/29 02:32:24;;;;;;;4.18;3.28;;;19.50;81.70;;;;;;3542391;40;20067;-66
2021/07/29 02:34:50;;;;;;;7.78;3.53;;;19.50;81.80;;;;;;3542426;40;20093;-66
2021/07/29 02:37:16;;;;;;;3.85;3.08;;;19.50;81.80;;;;;;3542395;40;20031;-66
2021/07/29 02:39:42;;;;;;;3.22;2.90;;;19.40;82.10;;;;;;3542654;40;20037;-66
2021/07/29 02:42:08;;;;;;;3.63;2.78;;;19.40;82.10;;;;;;3542694;40;20030;-65
2021/07/29 02:44:34;;;;;;;4.57;3.30;;;19.40;82.20;;;;;;3542187;40;20555;-66
2021/07/29 02:47:00;;;;;;;3.88;2.90;;;19.30;83.10;;;;;;3541406;40;20077;-66
2021/07/29 02:49:26;;;;;;;5.75;3.40;;;19.30;82.60;;;;;;3542296;40;20027;-66
2021/07/29 02:51:51;;;;;;;3.08;2.55;;;19.30;82.60;;;;;;3541535;40;20034;-65
2021/07/29 02:54:17;;;;;;;3.08;2.78;;;19.30;82.70;;;;;;3541815;40;20088;-66
2021/07/29 02:56:43;;;;;;;4.47;3.08;;;19.20;82.60;;;;;;3541997;40;20033;-66
2021/07/29 02:59:08;;;;;;;3.70;3.35;;;19.20;83.00;;;;;;3541484;40;20038;-66
2021/07/29 03:01:34;;;;;;;3.40;3.10;;;19.20;83.00;;;;;;3541761;40;20046;-65
2021/07/29 03:04:00;;;;;;;4.63;3.17;;;19.20;82.80;;;;;;3541293;40;20116;-66
2021/07/29 03:06:26;;;;;;;3.67;2.95;;;19.20;82.90;;;;;;3541528;40;20033;-66
2021/07/29 03:08:52;;;;;;;3.90;3.22;;;19.20;82.70;;;;;;3541260;40;20046;-66
2021/07/29 03:11:17;;;;;;;3.33;2.95;;;19.20;82.90;;;;;;3541837;40;20717;-66
2021/07/29 03:13:43;;;;;;;3.83;3.00;;;19.20;82.90;;;;;;3549043;40;20029;-65
2021/07/29 03:16:09;;;;;;;5.47;3.00;;;19.20;82.70;;;;;;3541846;40;20029;-66
2021/07/29 03:18:34;;;;;;;3.85;2.97;;;19.20;82.60;;;;;;3542510;40;20054;-67
2021/07/29 03:21:00;;;;;;;4.25;3.10;;;19.20;82.80;;;;;;3541383;40;20089;-65
2021/07/29 03:23:27;;;;;;;4.72;3.20;;;19.20;82.90;;;;;;3542376;40;20098;-65
2021/07/29 03:25:54;;;;;;;3.53;3.17;;;19.20;82.50;;;;;;3541759;40;20049;-66
2021/07/29 03:28:20;;;;;;;3.90;2.85;;;19.10;82.40;;;;;;3540265;40;20050;-66
2021/07/29 03:30:47;;;;;;;3.88;2.70;;;19.20;82.30;;;;;;3549319;40;20089;-65
2021/07/29 03:33:13;;;;;;;3.80;3.00;;;19.20;82.70;;;;;;3540955;40;20051;-66
2021/07/29 03:35:40;;;;;;;4.63;2.90;;;19.20;82.50;;;;;;3540337;40;20081;-66
2021/07/29 03:38:07;;;;;;;3.88;3.08;;;19.20;82.20;;;;;;3542489;40;20913;-65
2021/07/29 03:40:34;;;;;;;4.82;3.20;;;19.20;82.20;;;;;;3542174;40;20042;-67
2021/07/29 03:43:03;;;;;;;4.95;2.95;;;19.20;82.10;;;;;;3542528;40;20053;-65
2021/07/29 03:45:30;;;;;;;6.68;3.08;;;19.20;82.00;;;;;;3542689;40;20034;-66
2021/07/29 03:47:56;;;;;;;5.70;3.08;;;19.20;81.80;;;;;;3542462;40;20030;-65
2021/07/29 03:50:22;;;;;;;3.50;3.20;;;19.20;81.80;;;;;;3542969;40;20039;-63
2021/07/29 03:52:48;;;;;;;4.13;3.10;;;19.30;81.80;;;;;;3542515;40;20029;-65
2021/07/29 03:55:16;;;;;;;6.90;3.20;;;19.30;81.70;;;;;;3539339;40;20394;-64
2021/07/29 03:57:42;;;;;;;4.22;2.95;;;19.30;81.50;;;;;;3542983;40;20033;-64
2021/07/29 04:00:09;;;;;;;3.90;3.30;;;19.30;81.40;;;;;;3541935;40;20042;-65
2021/07/29 04:02:35;;;;;;;4.07;2.63;;;19.30;81.30;;;;;;3542461;40;20046;-64
2021/07/29 04:05:02;;;;;;;5.75;3.13;;;19.30;81.40;;;;;;3541999;40;20023;-64
2021/07/29 04:07:28;;;;;;;5.15;3.40;;;19.40;81.30;;;;;;3542482;40;20116;-65
2021/07/29 04:09:54;;;;;;;4.30;2.97;;;19.30;81.30;;;;;;3541998;40;20330;-65
2021/07/29 04:12:19;;;;;;;3.33;2.78;;;19.40;81.40;;;;;;3541180;40;20069;-65
2021/07/29 04:14:45;;;;;;;4.90;2.58;;;19.30;81.30;;;;;;3540890;40;20030;-66
2021/07/29 04:17:11;;;;;;;4.75;3.28;;;19.30;81.10;;;;;;3540397;40;20360;-65
2021/07/29 04:19:40;;;;;;;3.20;2.83;;;19.30;81.10;;;;;;3540764;40;20038;-65
2021/07/29 04:22:07;;;;;;;3.45;2.90;;;19.30;81.00;;;;;;3547286;40;20058;-65
2021/07/29 04:24:33;;;;;;;4.00;2.80;;;19.30;81.00;;;;;;3541084;40;20681;-65
2021/07/29 04:27:00;;;;;;;5.85;2.97;;;19.40;81.00;;;;;;3540843;40;20432;-65
2021/07/29 04:29:27;;;;;;;3.40;2.80;;;19.30;80.90;;;;;;3541163;40;20060;-65
2021/07/29 04:31:53;;;;;;;4.28;2.83;;;19.40;81.00;;;;;;3539090;40;20018;-65
2021/07/29 04:34:20;;;;;;;3.67;3.30;;;19.40;80.70;;;;;;3541154;40;20382;-64
2021/07/29 04:36:46;;;;;;;3.35;2.97;;;19.40;80.40;;;;;;3541144;40;20137;-65
2021/07/29 04:39:13;;;;;;;3.85;2.92;;;19.40;80.40;;;;;;3540840;40;20030;-65
2021/07/29 04:41:41;;;;;;;3.00;2.63;;;19.40;80.50;;;;;;3540942;40;20037;-66
2021/07/29 04:44:08;;;;;;;4.15;3.08;;;19.30;80.40;;;;;;3541212;40;20074;-65
2021/07/29 04:46:37;;;;;;;3.53;2.55;;;19.40;80.30;;;;;;3542204;40;20030;-66
2021/07/29 04:49:04;;;;;;;3.33;2.72;;;19.40;80.20;;;;;;3542509;40;20085;-65
2021/07/29 04:51:32;;;;;;;5.38;3.03;;;19.40;80.00;;;;;;3542696;40;20022;-66
2021/07/29 04:53:57;;;;;;;4.35;3.13;;;19.40;79.90;;;;;;3542999;40;20027;-65
2021/07/29 04:56:23;;;;;;;5.32;2.90;;;19.40;79.90;;;;;;3542977;40;20031;-65
2021/07/29 04:58:49;;;;;;;4.88;3.28;;;19.50;79.80;;;;;;3541732;40;20031;-65
2021/07/29 05:01:18;;;;;;;4.55;2.58;;;19.50;79.80;;;;;;3543157;40;20439;-64
2021/07/29 05:03:45;;;;;;;4.07;3.30;;;19.50;79.60;;;;;;3543421;40;20038;-65
2021/07/29 05:06:10;;;;;;;4.57;3.45;;;19.60;79.40;;;;;;3542876;40;20097;-65
2021/07/29 05:08:36;;;;;;;4.65;3.10;;;19.60;79.30;;;;;;3543131;40;20065;-65
2021/07/29 05:11:03;;;;;;;3.92;3.40;;;19.60;79.00;;;;;;3542538;40;20132;-65
2021/07/29 05:13:29;;;;;;;7.57;2.78;;;19.60;78.80;;;;;;3537672;40;20030;-65
2021/07/29 05:15:55;;;;;;;3.20;2.30;;;19.70;80.10;;;;;;3542109;40;20030;-66
2021/07/29 05:18:21;;;;;;;6.85;2.45;;;19.70;79.20;;;;;;3542353;40;20034;-66
2021/07/29 05:20:46;;;;;;;4.13;3.08;;;19.90;78.30;;;;;;3540622;40;20042;-66
2021/07/29 05:23:13;;;;;;;6.13;4.10;;;20.00;77.70;;;;;;3542042;40;20048;-66
2021/07/29 05:25:39;;;;;;;6.15;3.70;;;20.10;77.20;;;;;;3542037;40;20427;-66
2021/07/29 05:28:05;;;;;;;9.77;4.68;;;20.30;76.10;;;;;;3542724;40;20034;-65
2021/07/29 05:30:30;;;;;;;4.10;3.28;;;20.40;76.00;;;;;;3542528;40;20665;-66
2021/07/29 05:32:58;;;;;;;4.20;2.85;;;20.50;75.30;;;;;;3539346;40;20034;-65
2021/07/29 05:35:24;;;;;;;3.25;2.40;;;20.50;75.00;;;;;;3541547;40;20023;-65
2021/07/29 05:37:49;;;;;;;7.68;2.85;;;20.60;75.00;;;;;;3542447;40;20093;-66
2021/07/29 05:40:15;;;;;;;3.88;2.70;;;20.70;74.40;;;;;;3542035;40;20074;-65
2021/07/29 05:42:41;;;;;;;3.50;2.28;;;20.70;74.30;;;;;;3541188;40;20030;-66
2021/07/29 05:45:07;;;;;;;3.53;2.25;;;20.70;73.90;;;;;;3542506;40;20026;-65
2021/07/29 05:47:35;;;;;;;4.70;2.53;;;20.90;73.60;;;;;;3542959;40;20790;-65
2021/07/29 05:50:01;;;;;;;3.60;2.63;;;20.90;73.70;;;;;;3541889;40;20695;-65
2021/07/29 05:52:27;;;;;;;5.68;3.22;;;20.90;73.20;;;;;;3532613;40;20030;-65
2021/07/29 05:54:53;;;;;;;5.60;3.40;;;21.00;73.00;;;;;;3542198;40;20271;-65
2021/07/29 05:57:18;;;;;;;10.57;5.22;;;21.10;72.60;;;;;;3541124;40;20745;-65
2021/07/29 05:59:44;;;;;;;5.53;2.90;;;21.10;72.40;;;;;;3541436;40;20120;-65
2021/07/29 06:02:10;;;;;;;5.80;3.10;;;21.20;71.60;;;;;;3541823;40;20026;-64
2021/07/29 06:04:36;;;;;;;3.25;2.53;;;21.20;71.30;;;;;;3541728;40;20034;-64
2021/07/29 06:07:01;;;;;;;4.47;2.95;;;21.20;71.30;;;;;;3541481;40;20062;-64
2021/07/29 06:09:27;;;;;;;3.85;2.50;;;21.20;71.80;;;;;;3541228;40;20035;-65
2021/07/29 06:11:53;;;;;;;3.70;2.20;;;21.20;71.00;;;;;;3539809;40;20025;-64
2021/07/29 06:14:18;;;;;;;2.90;2.20;;;21.30;70.80;;;;;;3539931;40;20038;-65
2021/07/29 06:16:44;;;;;;;5.30;2.20;;;21.40;70.30;;;;;;3541858;40;20118;-65
2021/07/29 06:19:16;;;;;;;3.67;2.10;;;21.40;70.20;;;;;;3541549;40;20030;-65
2021/07/29 06:21:41;;;;;;;6.00;2.33;;;21.40;70.80;;;;;;3539616;40;20766;-65
2021/07/29 06:24:07;;;;;;;6.45;2.47;;;21.50;70.00;;;;;;3541977;40;20041;-65
2021/07/29 06:26:33;;;;;;;3.50;2.30;;;21.60;69.60;;;;;;3544042;40;20041;-65
2021/07/29 06:28:59;;;;;;;2.88;2.20;;;21.60;69.40;;;;;;3542283;40;20046;-69
2021/07/29 06:31:25;;;;;;;3.08;2.28;;;21.70;67.40;;;;;;3541425;40;20074;-64
2021/07/29 06:33:51;;;;;;;4.90;3.75;;;21.70;68.00;;;;;;3542056;40;20045;-65
2021/07/29 06:36:17;;;;;;;4.22;2.55;;;21.80;67.50;;;;;;3541041;40;20042;-66
2021/07/29 06:38:43;;;;;;;6.70;3.08;;;21.90;67.10;;;;;;3541092;40;20038;-65
2021/07/29 06:41:09;;;;;;;7.93;5.45;;;22.00;67.00;;;;;;3548205;40;20120;-65
2021/07/29 06:43:35;;;;;;;4.55;2.67;;;22.00;66.90;;;;;;3541137;40;20080;-65
2021/07/29 06:46:05;;;;;;;4.88;3.20;;;22.10;65.80;;;;;;3541013;40;20404;-65
2021/07/29 06:48:31;;;;;;;3.80;2.55;;;22.20;65.60;;;;;;3540831;40;20035;-65
2021/07/29 06:51:04;;;;;;;2.42;2.22;;;22.20;65.50;;;;;;3539568;40;20206;-65
2021/07/29 06:53:31;;;;;;;3.78;2.30;;;22.20;65.70;;;;;;3548759;40;20038;-65
2021/07/29 06:56:00;;;;;;;3.78;2.17;;;22.30;64.60;;;;;;3541404;40;20042;-65
2021/07/29 06:58:26;;;;;;;3.92;2.20;;;22.40;64.20;;;;;;3542309;40;20046;-64
2021/07/29 07:00:52;;;;;;;3.45;2.13;;;22.40;64.60;;;;;;3541760;40;20035;-65
2021/07/29 07:03:18;;;;;;;7.70;2.33;;;22.40;63.40;;;;;;3541354;40;20175;-64
2021/07/29 07:05:47;;;;;;;3.47;2.50;;;22.50;63.10;;;;;;3541635;40;20468;-65
2021/07/29 07:08:13;;;;;;;4.35;2.08;;;22.60;62.90;;;;;;3541253;40;20026;-64
2021/07/29 07:10:40;;;;;;;5.22;2.20;;;22.60;61.60;;;;;;3540931;40;20026;-65
2021/07/29 07:13:06;;;;;;;2.67;2.00;;;22.70;61.80;;;;;;3540990;40;20448;-64
2021/07/29 07:15:33;;;;;;;3.63;1.63;;;22.80;60.80;;;;;;3539823;40;20538;-64
2021/07/29 07:17:59;;;;;;;6.70;2.10;;;22.90;60.70;;;;;;3541604;40;20038;-65
2021/07/29 07:20:25;;;;;;;2.95;1.80;;;23.00;61.20;;;;;;3541422;40;20430;-65
2021/07/29 07:22:54;;;;;;;6.15;2.08;;;23.20;59.50;;;;;;3548752;40;20085;-65
2021/07/29 07:25:19;;;;;;;3.38;2.08;;;23.40;58.70;;;;;;3540384;40;20054;-65
2021/07/29 07:27:46;;;;;;;4.10;1.63;;;23.50;58.80;;;;;;3540042;40;20118;-65
2021/07/29 07:30:12;;;;;;;2.83;1.90;;;23.50;58.10;;;;;;3540228;40;20027;-65
2021/07/29 07:32:38;;;;;;;3.13;1.95;;;23.50;58.60;;;;;;3541122;40;20611;-65
2021/07/29 07:35:05;;;;;;;5.32;2.28;;;23.50;59.50;;;;;;3540501;40;20036;-65
2021/07/29 07:37:31;;;;;;;8.48;2.13;;;23.60;59.00;;;;;;3540648;40;20038;-74
2021/07/29 07:39:56;;;;;;;5.03;2.45;;;23.50;57.50;;;;;;3539453;40;20034;-69
2021/07/29 07:42:22;;;;;;;5.05;2.10;;;23.40;58.30;;;;;;3538102;40;20511;-69
2021/07/29 07:44:52;;;;;;;3.17;2.10;;;23.40;58.00;;;;;;3539432;40;20043;-69
2021/07/29 07:47:18;;;;;;;4.05;2.10;;;23.70;58.20;;;;;;3541365;40;20086;-70
2021/07/29 07:49:44;;;;;;;4.22;2.30;;;23.90;58.00;;;;;;3539912;40;20027;-70
2021/07/29 07:52:10;;;;;;;3.53;2.58;;;24.10;56.30;;;;;;3540181;40;20137;-69
2021/07/29 07:54:36;;;;;;;9.45;2.38;;;24.20;56.80;;;;;;3539007;40;20045;-69
2021/07/29 07:57:06;;;;;;;2.67;2.05;;;24.20;55.90;;;;;;3539998;40;20767;-70
2021/07/29 07:59:39;;;;;;;5.45;2.30;;;24.10;57.00;;;;;;3539762;40;20042;-70
2021/07/29 08:02:05;;;;;;;5.35;2.17;;;24.20;56.60;;;;;;3537958;40;20104;-76
2021/07/29 08:04:31;;;;;;;7.38;2.28;;;24.20;56.70;;;;;;3539149;40;20053;-69
2021/07/29 08:06:58;;;;;;;3.47;1.98;;;24.10;56.30;;;;;;3547607;40;20735;-68
2021/07/29 08:09:24;;;;;;;4.22;2.60;;;24.10;56.00;;;;;;3538845;40;20030;-69
2021/07/29 08:11:50;;;;;;;4.47;2.05;;;24.00;56.00;;;;;;3540046;40;20030;-68
2021/07/29 08:14:16;;;;;;;4.53;2.50;;;23.90;56.00;;;;;;3540901;40;20027;-68
2021/07/29 08:16:42;;;;;;;3.00;1.90;;;23.80;56.60;;;;;;3539757;40;20082;-68
2021/07/29 08:19:08;;;;;;;2.85;2.15;;;23.60;55.50;;;;;;3540464;40;20037;-68
2021/07/29 08:21:34;;;;;;;4.30;2.17;;;23.50;57.50;;;;;;3538925;40;20049;-70
2021/07/29 08:24:01;;;;;;;4.35;2.10;;;23.50;58.00;;;;;;3540858;40;20049;-69
2021/07/29 08:26:26;;;;;;;8.88;2.75;;;23.50;57.20;;;;;;3540452;40;20329;-69
2021/07/29 08:28:52;;;;;;;4.90;2.60;;;23.50;57.50;;;;;;3541030;40;20030;-69
2021/07/29 08:31:19;;;;;;;3.45;2.63;;;23.60;57.30;;;;;;3541393;40;20031;-68
2021/07/29 08:33:46;;;;;;;4.25;2.35;;;23.60;57.40;;;;;;3541370;40;20033;-69
2021/07/29 08:36:19;;;;;;;4.25;3.40;;;23.60;57.40;;;;;;3538291;40;20053;-68
2021/07/29 08:38:46;;;;;;;5.07;2.97;;;23.70;57.40;;;;;;3540536;40;20045;-69
2021/07/29 08:41:15;;;;;;;6.63;2.90;;;23.70;56.60;;;;;;3540192;40;20547;-70
2021/07/29 08:43:41;;;;;;;4.45;2.50;;;23.70;56.70;;;;;;3540532;40;20094;-68
2021/07/29 08:46:09;;;;;;;3.45;2.00;;;23.70;57.00;;;;;;3541297;40;20038;-69
2021/07/29 08:48:36;;;;;;;7.15;2.67;;;23.60;55.80;;;;;;3539128;40;20038;-69
2021/07/29 08:51:02;;;;;;;5.43;2.67;;;23.60;56.30;;;;;;3541215;40;20344;-68
2021/07/29 08:53:28;;;;;;;5.40;4.13;;;23.50;55.80;;;;;;3541110;40;20026;-69
2021/07/29 08:55:55;;;;;;;8.45;2.92;;;23.50;56.80;;;;;;3540411;40;20074;-69
2021/07/29 08:58:22;;;;;;;5.78;3.03;;;23.50;56.60;;;;;;3540229;40;20332;-69
2021/07/29 09:01:05;;;;;;;4.55;2.75;;;23.70;56.80;;;;;;3540477;40;20034;-69
2021/07/29 09:03:33;;;;;;;6.75;2.60;;;23.90;56.40;;;;;;3540932;40;20476;-69
2021/07/29 09:06:05;;;;;;;5.25;3.03;;;24.00;54.80;;;;;;3539954;40;20027;-70
2021/07/29 09:08:45;;;;;;;5.50;2.45;;;24.10;55.00;;;;;;3539252;40;20141;-69
2021/07/29 09:11:37;;;;;;;4.35;2.58;;;24.30;54.30;;;;;;3541049;40;20046;-69
2021/07/29 09:14:12;;;;;;;7.25;3.95;;;24.40;53.80;;;;;;3540109;40;20042;-68
2021/07/29 09:17:05;;;;;;;5.72;3.20;;;24.50;53.20;;;;;;3540526;40;20073;-68
2021/07/29 09:19:40;;;;;;;5.35;2.78;;;24.70;51.80;;;;;;3540612;40;20057;-69
2021/07/29 09:22:20;;;;;;;8.53;3.30;;;24.70;53.40;;;;;;3539505;40;20047;-68
2021/07/29 09:25:08;;;;;;;7.68;2.50;;;24.80;52.40;;;;;;3540217;40;20276;-68
2021/07/29 09:27:37;;;;;;;6.65;3.05;;;24.90;52.10;;;;;;3541049;40;20053;-70
2021/07/29 09:30:17;;;;;;;3.63;2.50;;;24.80;53.60;;;;;;3540370;40;20046;-68
2021/07/29 09:33:05;;;;;;;7.60;2.90;;;24.80;53.20;;;;;;3540507;40;20034;-70
2021/07/29 09:35:36;;;;;;;6.63;3.00;;;24.80;54.20;;;;;;3548493;40;20616;-69
2021/07/29 09:38:05;;;;;;;4.47;3.17;;;24.80;53.10;;;;;;3542014;40;20034;-69
2021/07/29 09:40:46;;;;;;;3.80;2.15;;;24.70;54.10;;;;;;3540011;40;20811;-69
2021/07/29 09:43:15;;;;;;;3.10;2.67;;;24.60;54.60;;;;;;3548963;40;20164;-69
2021/07/29 09:45:43;;;;;;;4.30;2.42;;;24.60;54.30;;;;;;3541779;40;20042;-67
2021/07/29 09:48:10;;;;;;;3.15;2.10;;;24.50;55.40;;;;;;3548509;40;20030;-67
2021/07/29 09:50:37;;;;;;;3.75;2.17;;;24.40;55.00;;;;;;3540193;40;20503;-68
2021/07/29 09:53:04;;;;;;;6.65;2.10;;;24.30;54.80;;;;;;3541753;40;20574;-69
2021/07/29 09:55:31;;;;;;;2.63;2.30;;;24.20;55.70;;;;;;3540834;40;20029;-69
2021/07/29 09:57:58;;;;;;;3.92;2.65;;;24.10;56.00;;;;;;3541121;40;20721;-72
2021/07/29 10:00:24;;;;;;;6.22;3.25;;;24.00;56.10;;;;;;3540893;40;20181;-69
2021/07/29 10:02:52;;;;;;;3.72;2.33;;;23.90;56.20;;;;;;3548466;40;20026;-69
2021/07/29 10:05:23;;;;;;;4.25;2.35;;;24.00;55.70;;;;;;3541262;40;20082;-69
2021/07/29 10:07:51;;;;;;;6.40;2.53;;;24.20;55.10;;;;;;3541154;40;20041;-69
2021/07/29 10:10:21;;;;;;;3.95;2.35;;;24.30;54.00;;;;;;3540076;40;20030;-69
2021/07/29 10:12:48;;;;;;;5.93;2.30;;;24.40;53.10;;;;;;3539415;40;20061;-70
2021/07/29 10:15:44;;;;;;;4.65;2.50;;;24.40;51.90;;;;;;3541230;40;20030;-69
2021/07/29 10:18:11;;;;;;;4.25;2.78;;;24.30;52.30;;;;;;3539995;40;20047;-69
2021/07/29 10:20:38;;;;;;;4.47;2.25;;;24.30;52.60;;;;;;3540281;40;20046;-69
2021/07/29 10:23:28;;;;;;;2.95;2.35;;;24.40;52.90;;;;;;3540570;40;20613;-70
2021/07/29 10:26:02;;;;;;;5.75;2.65;;;24.70;52.70;;;;;;3533819;40;20799;-70
2021/07/29 10:28:35;;;;;;;4.93;2.70;;;24.90;52.50;;;;;;3541339;40;20094;-70
2021/07/29 10:31:02;;;;;;;7.40;2.80;;;24.90;52.80;;;;;;3539152;40;20333;-70
2021/07/29 10:33:29;;;;;;;3.42;2.30;;;25.00;53.10;;;;;;3542061;40;20034;-70
2021/07/29 10:35:59;;;;;;;4.05;2.38;;;25.00;51.80;;;;;;3541260;40;20759;-68
2021/07/29 10:38:39;;;;;;;3.80;2.50;;;25.00;52.00;;;;;;3541488;40;20061;-78
2021/07/29 10:41:23;;;;;;;4.88;2.13;;;25.00;51.40;;;;;;3541202;40;20034;-68
2021/07/29 10:43:50;;;;;;;5.75;1.98;;;25.00;48.80;;;;;;3541227;40;20038;-69
2021/07/29 10:46:16;;;;;;;5.95;1.83;;;25.00;47.40;;;;;;3541785;40;20038;-69
2021/07/29 10:48:45;;;;;;;6.72;1.92;;;24.80;47.50;;;;;;3541681;40;20046;-68
2021/07/29 10:51:18;;;;;;;2.22;1.73;;;24.70;47.10;;;;;;3541894;40;20400;-69
2021/07/29 10:53:45;;;;;;;2.63;1.63;;;24.60;47.40;;;;;;3541820;40;20140;-69
2021/07/29 10:56:15;;;;;;;5.55;1.83;;;24.60;47.00;;;;;;3542926;40;20663;-67
2021/07/29 10:58:45;;;;;;;4.03;1.80;;;24.60;46.30;;;;;;3540521;40;20049;-67
2021/07/29 11:01:13;;;;;;;1.77;1.40;;;24.50;46.80;;;;;;3541311;40;20041;-68
2021/07/29 11:03:46;;;;;;;2.53;1.50;;;24.50;46.40;;;;;;3541268;40;20033;-67
2021/07/29 11:06:25;;;;;;;3.58;1.40;;;24.50;45.80;;;;;;3540476;40;20038;-68
2021/07/29 11:08:51;;;;;;;4.55;1.85;;;24.60;46.00;;;;;;3541134;40;20031;-68
2021/07/29 11:11:18;;;;;;;4.20;2.60;;;24.70;45.80;;;;;;3540410;40;20042;-68
2021/07/29 11:13:48;;;;;;;1.80;1.33;;;24.60;45.50;;;;;;3541835;40;20729;-69
2021/07/29 11:16:15;;;;;;;3.65;1.35;;;24.50;45.70;;;;;;3541120;40;20034;-68
2021/07/29 11:18:41;;;;;;;2.28;1.90;;;24.60;45.50;;;;;;3540853;40;20120;-68
2021/07/29 11:21:17;;;;;;;3.50;1.80;;;24.60;45.40;;;;;;3540798;40;20046;-67
2021/07/29 11:23:43;;;;;;;4.45;2.03;;;24.50;45.90;;;;;;3541119;40;20034;-68
2021/07/29 11:26:09;;;;;;;6.03;1.80;;;24.60;46.60;;;;;;3541471;40;20023;-67
2021/07/29 11:28:35;;;;;;;3.28;1.48;;;24.70;45.30;;;;;;3542023;40;20414;-67
2021/07/29 11:31:03;;;;;;;2.75;2.03;;;24.70;45.90;;;;;;3541253;40;20031;-68
2021/07/29 11:33:29;;;;;;;7.25;1.80;;;24.70;47.50;;;;;;3541842;40;20152;-67
2021/07/29 11:36:07;;;;;;;5.20;2.03;;;24.70;45.60;;;;;;3539905;40;20053;-67
2021/07/29 11:38:32;;;;;;;3.47;1.70;;;24.70;46.70;;;;;;3541789;40;20433;-67
2021/07/29 11:41:03;;;;;;;3.08;1.40;;;24.70;45.30;;;;;;3541353;40;20035;-69
2021/07/29 11:43:33;;;;;;;7.82;1.73;;;24.70;45.90;;;;;;3549260;40;20042;-67
2021/07/29 11:46:10;;;;;;;2.08;1.80;;;24.80;46.50;;;;;;3539466;40;20636;-69
2021/07/29 11:48:36;;;;;;;1.73;1.40;;;24.80;47.60;;;;;;3540765;40;20034;-67
2021/07/29 11:51:12;;;;;;;3.10;1.27;;;24.80;46.00;;;;;;3538624;40;20039;-67
2021/07/29 11:53:42;;;;;;;3.00;1.40;;;24.80;46.00;;;;;;3540636;40;20045;-67
2021/07/29 11:56:09;;;;;;;2.08;1.30;;;24.70;45.20;;;;;;3538093;40;20615;-68
2021/07/29 11:58:40;;;;;;;3.15;1.50;;;24.60;47.00;;;;;;3538937;40;20030;-67
2021/07/29 12:01:13;;;;;;;3.83;1.50;;;24.60;46.40;;;;;;3540690;40;20073;-67
2021/07/29 12:03:47;;;;;;;2.40;1.48;;;24.50;45.80;;;;;;3539247;40;20058;-69
2021/07/29 12:06:15;;;;;;;2.60;1.73;;;24.50;46.60;;;;;;3539895;40;20027;-67
2021/07/29 12:08:42;;;;;;;2.58;1.52;;;24.60;46.70;;;;;;3540190;40;20042;-67
2021/07/29 12:11:10;;;;;;;3.42;1.63;;;24.70;47.50;;;;;;3539545;40;20046;-66
2021/07/29 12:13:41;;;;;;;3.85;1.60;;;24.90;47.50;;;;;;3540517;40;20026;-67
2021/07/29 12:16:07;;;;;;;2.33;1.50;;;25.10;46.20;;;;;;3540020;40;20039;-67
2021/07/29 12:18:32;;;;;;;2.40;1.40;;;25.10;46.60;;;;;;3540636;40;20132;-67
2021/07/29 12:20:58;;;;;;;3.42;1.50;;;25.20;46.20;;;;;;3539822;40;20042;-67
2021/07/29 12:23:25;;;;;;;4.20;1.67;;;25.10;46.10;;;;;;3546671;40;20050;-69
2021/07/29 12:25:52;;;;;;;4.45;1.45;;;25.00;46.40;;;;;;3540732;40;20189;-68
2021/07/29 12:28:46;;;;;;;2.83;1.52;;;25.00;46.10;;;;;;3540917;40;20420;-68
2021/07/29 12:31:20;;;;;;;5.47;1.73;;;25.10;46.10;;;;;;3539148;40;20126;-67
2021/07/29 12:33:57;;;;;;;3.42;1.60;;;25.20;45.40;;;;;;3548315;40;20026;-68
2021/07/29 12:36:24;;;;;;;1.77;1.60;;;25.10;45.80;;;;;;3540542;40;20033;-69
2021/07/29 12:39:01;;;;;;;4.68;1.27;;;25.00;46.40;;;;;;3540378;40;20041;-67
2021/07/29 12:41:35;;;;;;;5.05;1.75;;;25.00;44.00;;;;;;3539776;40;20038;-68
2021/07/29 12:44:06;;;;;;;4.72;1.67;;;25.00;44.20;;;;;;3539877;40;20038;-68
2021/07/29 12:46:32;;;;;;;3.53;1.42;;;25.00;43.90;;;;;;3538182;40;20763;-67
2021/07/29 12:48:58;;;;;;;2.80;1.30;;;25.10;44.60;;;;;;3538813;40;20863;-67
2021/07/29 12:51:48;;;;;;;9.02;4.97;;;25.20;44.30;;;;;;3539428;40;20043;-68
2021/07/29 12:54:19;;;;;;;3.08;1.42;;;25.20;43.40;;;;;;3540448;40;20630;-65